Time;durP1;ratioP1;P1;durP2;ratioP2;P2;SDS_P1;SDS_P2;PMS_P1;PMS_P2;Temp;Humidity;BMP_temperature;BMP_pressure;BME280_temperature;BME280_humidity;BME280_pressure;Samples;Min_cycle;Max_cycle;Signal;HPM_P1;HPM_P2
2021/07/16 00:00:00;;;;;;;;;;;;;;;;;;1026505;29;19915;-81
2021/07/16 00:00:30;;;;;;;;;;;;;;;;;;1025853;29;20392;-80
2021/07/16 00:01:01;;;;;;;;;;;;;;;;;;1025421;29;19957;-80
2021/07/16 00:01:31;;;;;;;;;;;;;;;;;;1029954;28;19921;-81
2021/07/16 00:02:01;;;;;;;;;;;;;;;;;;1029486;28;19976;-81
2021/07/16 00:02:31;;;;;;;;;;;;;;;;;;1028894;28;19913;-80
2021/07/16 00:03:01;;;;;;;;;;;;;;;;;;1024951;29;19911;-81
2021/07/16 00:03:32;;;;;;;;;;;;;;;;;;1024986;29;20087;-80
2021/07/16 00:04:02;;;;;;;;;;;;;;;;;;1029145;28;19984;-80
2021/07/16 00:04:32;;;;;;;;;;;;;;;;;;1025234;28;20010;-80
2021/07/16 00:05:03;;;;;;;;;;;;;;;;;;1028797;28;20395;-80
2021/07/16 00:05:33;;;;;;;;;;;;;;;;;;1030060;28;19918;-80
2021/07/16 00:06:03;;;;;;;;;;;;;;;;;;1030196;28;20311;-81
2021/07/16 00:06:33;;;;;;;;;;;;;;;;;;1025569;29;19962;-80
2021/07/16 00:07:04;;;;;;;;;;;;;;;;;;1025415;29;19911;-80
2021/07/16 00:07:34;;;;;;;;;;;;;;;;;;1025285;29;19953;-80
2021/07/16 00:08:04;;;;;;;;;;;;;;;;;;1024981;29;19917;-79
2021/07/16 00:08:35;;;;;;;;;;;;;;;;;;1025154;28;19914;-79
2021/07/16 00:09:05;;;;;;;;;;;;;;;;;;1029307;28;19914;-80
2021/07/16 00:09:35;;;;;;;;;;;;;;;;;;1021316;29;19906;-80
2021/07/16 00:10:07;;;;;;;;;;;;;;;;;;1029492;28;19960;-80
2021/07/16 00:10:37;;;;;;;;;;;;;;;;;;1026338;29;20009;-80
2021/07/16 00:11:07;;;;;;;;;;;;;;;;;;1025936;28;20348;-81
2021/07/16 00:11:37;;;;;;;;;;;;;;;;;;1025452;29;19917;-80
2021/07/16 00:12:08;;;;;;;;;;;;;;;;;;1017373;29;19911;-81
2021/07/16 00:12:38;;;;;;;;;;;;;;;;;;1017466;29;20341;-80
2021/07/16 00:13:08;;;;;;;;;;;;;;;;;;1017503;29;19966;-80
2021/07/16 00:13:39;;;;;;;;;;;;;;;;;;1017399;29;20005;-80
2021/07/16 00:14:09;;;;;;;;;;;;;;;;;;1021360;29;19907;-80
2021/07/16 00:14:39;;;;;;;;;;;;;;;;;;1017360;29;19911;-80
2021/07/16 00:15:09;;;;;;;;;;;;;;;;;;1017447;29;19914;-81
2021/07/16 00:15:40;;;;;;;;;;;;;;;;;;1017308;29;19931;-80
2021/07/16 00:16:10;;;;;;;;;;;;;;;;;;1021137;29;19915;-80
2021/07/16 00:16:40;;;;;;;;;;;;;;;;;;1021187;29;19911;-80
2021/07/16 00:17:10;;;;;;;;;;;;;;;;;;1021209;29;20361;-80
2021/07/16 00:17:41;;;;;;;;;;;;;;;;;;1021144;29;19907;-80
2021/07/16 00:18:11;;;;;;;;;;;;;;;;;;1025101;29;19914;-80
2021/07/16 00:18:42;;;;;;;;;;;;;;;;;;1025012;29;20012;-80
2021/07/16 00:19:12;;;;;;;;;;;;;;;;;;1025254;29;19910;-80
2021/07/16 00:19:43;;;;;;;;;;;;;;;;;;1021202;29;19911;-80
2021/07/16 00:20:13;;;;;;;;;;;;;;;;;;1021261;29;19907;-80
2021/07/16 00:20:44;;;;;;;;;;;;;;;;;;1021063;29;19914;-79
2021/07/16 00:21:14;;;;;;;;;;;;;;;;;;1017248;29;19908;-80
2021/07/16 00:21:44;;;;;;;;;;;;;;;;;;1017099;29;19907;-80
2021/07/16 00:22:15;;;;;;;;;;;;;;;;;;1017445;29;19907;-79
2021/07/16 00:22:45;;;;;;;;;;;;;;;;;;1021230;28;19907;-80
2021/07/16 00:23:15;;;;;;;;;;;;;;;;;;1029538;28;19942;-80
2021/07/16 00:23:46;;;;;;;;;;;;;;;;;;1029253;28;19953;-80
2021/07/16 00:24:16;;;;;;;;;;;;;;;;;;1029190;28;19913;-80
2021/07/16 00:24:46;;;;;;;;;;;;;;;;;;1029238;28;19981;-80
2021/07/16 00:25:16;;;;;;;;;;;;;;;;;;1029133;28;19910;-81
2021/07/16 00:25:47;;;;;;;;;;;;;;;;;;1029299;28;19933;-81
2021/07/16 00:26:17;;;;;;;;;;;;;;;;;;1029046;28;19913;-81
2021/07/16 00:26:47;;;;;;;;;;;;;;;;;;1021196;29;20009;-81
2021/07/16 00:27:17;;;;;;;;;;;;;;;;;;1021225;29;19942;-81
2021/07/16 00:27:48;;;;;;;;;;;;;;;;;;1021442;29;19962;-81
2021/07/16 00:28:18;;;;;;;;;;;;;;;;;;1025030;29;19907;-81
2021/07/16 00:28:48;;;;;;;;;;;;;;;;;;1017806;29;19907;-80
2021/07/16 00:29:19;;;;;;;;;;;;;;;;;;1021479;29;19907;-80
2021/07/16 00:29:49;;;;;;;;;;;;;;;;;;1017692;29;19907;-80
2021/07/16 00:30:19;;;;;;;;;;;;;;;;;;1017784;29;19962;-80
2021/07/16 00:30:50;;;;;;;;;;;;;;;;;;1014206;29;20358;-80
2021/07/16 00:31:20;;;;;;;;;;;;;;;;;;1017875;29;19907;-81
2021/07/16 00:31:51;;;;;;;;;;;;;;;;;;1017770;29;19984;-81
2021/07/16 00:32:21;;;;;;;;;;;;;;;;;;1021476;29;19980;-81
2021/07/16 00:32:51;;;;;;;;;;;;;;;;;;1017654;29;20006;-81
2021/07/16 00:33:21;;;;;;;;;;;;;;;;;;1021728;29;20346;-80
2021/07/16 00:33:52;;;;;;;;;;;;;;;;;;1022243;29;19956;-80
2021/07/16 00:34:22;;;;;;;;;;;;;;;;;;1029725;28;19999;-81
2021/07/16 00:34:52;;;;;;;;;;;;;;;;;;1025672;29;19961;-81
2021/07/16 00:35:22;;;;;;;;;;;;;;;;;;1025592;29;19907;-80
2021/07/16 00:35:53;;;;;;;;;;;;;;;;;;1026056;29;19907;-81
2021/07/16 00:36:23;;;;;;;;;;;;;;;;;;1031416;28;19992;-81
2021/07/16 00:36:53;;;;;;;;;;;;;;;;;;1031439;28;19906;-81
2021/07/16 00:37:23;;;;;;;;;;;;;;;;;;1031506;28;20315;-81
2021/07/16 00:37:54;;;;;;;;;;;;;;;;;;1031196;28;19914;-81
2021/07/16 00:38:24;;;;;;;;;;;;;;;;;;1026732;29;19929;-80
2021/07/16 00:38:54;;;;;;;;;;;;;;;;;;1025824;28;19907;-81
2021/07/16 00:39:25;;;;;;;;;;;;;;;;;;1025999;29;19913;-81
2021/07/16 00:39:55;;;;;;;;;;;;;;;;;;1026161;29;19907;-80
2021/07/16 00:40:25;;;;;;;;;;;;;;;;;;1026199;29;19915;-81
2021/07/16 00:40:55;;;;;;;;;;;;;;;;;;1026304;29;19907;-81
2021/07/16 00:41:27;;;;;;;;;;;;;;;;;;1022760;29;20365;-82
2021/07/16 00:41:57;;;;;;;;;;;;;;;;;;1025882;28;19906;-81
2021/07/16 00:42:28;;;;;;;;;;;;;;;;;;1029641;28;20357;-81
2021/07/16 00:42:58;;;;;;;;;;;;;;;;;;1025619;28;19906;-81
2021/07/16 00:43:28;;;;;;;;;;;;;;;;;;1026053;29;19961;-81
2021/07/16 00:43:59;;;;;;;;;;;;;;;;;;1027223;29;19938;-79
2021/07/16 00:44:29;;;;;;;;;;;;;;;;;;1023796;29;19907;-79
2021/07/16 00:44:59;;;;;;;;;;;;;;;;;;1023940;29;19913;-79
2021/07/16 00:45:29;;;;;;;;;;;;;;;;;;1023822;29;19959;-79
2021/07/16 00:46:00;;;;;;;;;;;;;;;;;;1018562;29;19907;-80
2021/07/16 00:46:30;;;;;;;;;;;;;;;;;;1021231;29;19911;-80
2021/07/16 00:47:00;;;;;;;;;;;;;;;;;;1025345;29;19997;-80
2021/07/16 00:47:30;;;;;;;;;;;;;;;;;;1021076;29;19911;-80
2021/07/16 00:48:01;;;;;;;;;;;;;;;;;;1017567;29;19965;-80
2021/07/16 00:48:31;;;;;;;;;;;;;;;;;;1018264;29;19957;-80
2021/07/16 00:49:01;;;;;;;;;;;;;;;;;;1023669;29;19917;-80
2021/07/16 00:49:31;;;;;;;;;;;;;;;;;;1029365;28;19934;-80
2021/07/16 00:50:02;;;;;;;;;;;;;;;;;;1029494;29;19977;-79
2021/07/16 00:50:32;;;;;;;;;;;;;;;;;;1029699;29;19901;-80
2021/07/16 00:51:02;;;;;;;;;;;;;;;;;;1029832;28;19973;-80
2021/07/16 00:51:33;;;;;;;;;;;;;;;;;;1032371;28;20637;-80
2021/07/16 00:52:03;;;;;;;;;;;;;;;;;;1030206;28;19964;-79
2021/07/16 00:52:33;;;;;;;;;;;;;;;;;;1028922;28;19977;-79
2021/07/16 00:53:03;;;;;;;;;;;;;;;;;;1025161;29;19907;-79
2021/07/16 00:53:34;;;;;;;;;;;;;;;;;;1023579;29;19906;-79
2021/07/16 00:54:04;;;;;;;;;;;;;;;;;;1021495;29;19910;-79
2021/07/16 00:54:34;;;;;;;;;;;;;;;;;;1021533;29;20002;-79
2021/07/16 00:55:04;;;;;;;;;;;;;;;;;;1025106;28;20332;-79
2021/07/16 00:55:35;;;;;;;;;;;;;;;;;;1029392;28;19902;-79
2021/07/16 00:56:05;;;;;;;;;;;;;;;;;;1029271;28;19913;-79
2021/07/16 00:56:35;;;;;;;;;;;;;;;;;;1029050;28;20052;-79
2021/07/16 00:57:07;;;;;;;;;;;;;;;;;;1032630;28;19993;-79
2021/07/16 00:57:37;;;;;;;;;;;;;;;;;;1032652;28;20587;-79
2021/07/16 00:58:07;;;;;;;;;;;;;;;;;;1028943;28;19961;-79
2021/07/16 00:58:37;;;;;;;;;;;;;;;;;;1029069;28;20345;-79
2021/07/16 00:59:08;;;;;;;;;;;;;;;;;;1024986;29;19903;-79
2021/07/16 00:59:38;;;;;;;;;;;;;;;;;;1021129;29;19915;-79
2021/07/16 01:00:08;;;;;;;;;;;;;;;;;;1020969;29;19914;-79
2021/07/16 01:00:38;;;;;;;;;;;;;;;;;;1017020;29;19914;-79
2021/07/16 01:01:09;;;;;;;;;;;;;;;;;;1017244;29;20358;-79
2021/07/16 01:01:39;;;;;;;;;;;;;;;;;;1017260;29;20286;-79
2021/07/16 01:02:09;;;;;;;;;;;;;;;;;;1020780;29;19938;-79
2021/07/16 01:02:39;;;;;;;;;;;;;;;;;;1025005;29;19934;-79
2021/07/16 01:03:10;;;;;;;;;;;;;;;;;;1029090;28;20386;-78
2021/07/16 01:03:41;;;;;;;;;;;;;;;;;;1024935;28;19906;-79
2021/07/16 01:04:11;;;;;;;;;;;;;;;;;;1028824;28;19906;-79
2021/07/16 01:04:41;;;;;;;;;;;;;;;;;;1025155;29;19914;-79
2021/07/16 01:05:11;;;;;;;;;;;;;;;;;;1025268;28;20253;-79
2021/07/16 01:05:42;;;;;;;;;;;;;;;;;;1024942;29;19911;-79
2021/07/16 01:06:12;;;;;;;;;;;;;;;;;;1024911;28;19913;-79
2021/07/16 01:06:42;;;;;;;;;;;;;;;;;;1029015;28;19906;-79
2021/07/16 01:07:13;;;;;;;;;;;;;;;;;;1029205;28;19906;-79
2021/07/16 01:07:43;;;;;;;;;;;;;;;;;;1033031;28;19906;-79
2021/07/16 01:08:13;;;;;;;;;;;;;;;;;;1028825;28;19906;-79
2021/07/16 01:08:44;;;;;;;;;;;;;;;;;;1028987;28;19992;-79
2021/07/16 01:09:14;;;;;;;;;;;;;;;;;;1028891;28;19953;-79
2021/07/16 01:09:46;;;;;;;;;;;;;;;;;;1029110;28;19913;-79
2021/07/16 01:10:16;;;;;;;;;;;;;;;;;;1024880;29;19949;-79
2021/07/16 01:10:46;;;;;;;;;;;;;;;;;;1025230;28;19913;-79
2021/07/16 01:11:17;;;;;;;;;;;;;;;;;;1023278;29;20005;-79
2021/07/16 01:11:47;;;;;;;;;;;;;;;;;;1024568;29;19941;-79
2021/07/16 01:12:17;;;;;;;;;;;;;;;;;;1028770;28;20375;-79
2021/07/16 01:12:53;;;;;;;;;;;;;;;;;;1029042;28;19958;-79
2021/07/16 01:13:24;;;;;;;;;;;;;;;;;;1032232;28;19909;-79
2021/07/16 01:13:54;;;;;;;;;;;;;;;;;;1029914;28;20343;-79
2021/07/16 01:14:24;;;;;;;;;;;;;;;;;;1032149;28;19953;-79
2021/07/16 01:14:55;;;;;;;;;;;;;;;;;;1028930;28;19906;-79
2021/07/16 01:15:25;;;;;;;;;;;;;;;;;;1029089;28;19972;-79
2021/07/16 01:15:55;;;;;;;;;;;;;;;;;;1029081;28;19985;-79
2021/07/16 01:16:26;;;;;;;;;;;;;;;;;;1029109;28;20422;-79
2021/07/16 01:16:56;;;;;;;;;;;;;;;;;;1028575;28;20315;-80
2021/07/16 01:17:26;;;;;;;;;;;;;;;;;;1024333;28;19974;-80
2021/07/16 01:17:57;;;;;;;;;;;;;;;;;;1020959;29;19919;-80
2021/07/16 01:18:27;;;;;;;;;;;;;;;;;;1020811;29;19930;-80
2021/07/16 01:18:57;;;;;;;;;;;;;;;;;;1025258;29;19911;-79
2021/07/16 01:19:27;;;;;;;;;;;;;;;;;;1024947;28;20348;-79
2021/07/16 01:19:58;;;;;;;;;;;;;;;;;;1017105;29;20288;-79
2021/07/16 01:20:28;;;;;;;;;;;;;;;;;;1013141;29;19915;-79
2021/07/16 01:20:58;;;;;;;;;;;;;;;;;;1013275;29;20001;-80
2021/07/16 01:21:29;;;;;;;;;;;;;;;;;;1013388;29;19908;-79
2021/07/16 01:21:59;;;;;;;;;;;;;;;;;;1017016;29;19936;-79
2021/07/16 01:22:29;;;;;;;;;;;;;;;;;;1021170;29;19962;-79
2021/07/16 01:22:59;;;;;;;;;;;;;;;;;;1016998;29;19911;-80
2021/07/16 01:23:30;;;;;;;;;;;;;;;;;;1013130;29;20377;-80
2021/07/16 01:24:00;;;;;;;;;;;;;;;;;;1012643;29;19920;-80
2021/07/16 01:24:30;;;;;;;;;;;;;;;;;;1017085;29;19918;-79
2021/07/16 01:25:00;;;;;;;;;;;;;;;;;;1017049;29;19999;-79
2021/07/16 01:25:31;;;;;;;;;;;;;;;;;;1017034;29;19980;-79
2021/07/16 01:26:01;;;;;;;;;;;;;;;;;;1017008;29;19958;-79
2021/07/16 01:26:31;;;;;;;;;;;;;;;;;;1020926;29;19911;-79
2021/07/16 01:27:02;;;;;;;;;;;;;;;;;;1020761;29;20417;-79
2021/07/16 01:27:32;;;;;;;;;;;;;;;;;;1020942;29;19918;-78
2021/07/16 01:28:02;;;;;;;;;;;;;;;;;;1024643;29;19914;-79
2021/07/16 01:28:32;;;;;;;;;;;;;;;;;;1020944;29;19907;-79
2021/07/16 01:29:03;;;;;;;;;;;;;;;;;;1024792;29;19928;-79
2021/07/16 01:29:34;;;;;;;;;;;;;;;;;;1021003;29;20377;-79
2021/07/16 01:30:04;;;;;;;;;;;;;;;;;;1024893;29;19918;-79
2021/07/16 01:30:34;;;;;;;;;;;;;;;;;;1020948;29;19910;-79
2021/07/16 01:31:04;;;;;;;;;;;;;;;;;;1021162;29;19907;-79
2021/07/16 01:31:36;;;;;;;;;;;;;;;;;;1021033;29;19939;-79
2021/07/16 01:32:06;;;;;;;;;;;;;;;;;;1021111;29;19918;-79
2021/07/16 01:32:40;;;;;;;;;;;;;;;;;;1020753;29;19995;-79
2021/07/16 01:33:10;;;;;;;;;;;;;;;;;;1017128;29;19963;-79
2021/07/16 01:33:40;;;;;;;;;;;;;;;;;;1017754;29;19910;-79
2021/07/16 01:34:11;;;;;;;;;;;;;;;;;;1018310;29;19931;-80
2021/07/16 01:34:41;;;;;;;;;;;;;;;;;;1024863;29;19965;-80
2021/07/16 01:35:11;;;;;;;;;;;;;;;;;;1025021;29;19911;-80
2021/07/16 01:35:42;;;;;;;;;;;;;;;;;;1024765;29;19914;-80
2021/07/16 01:36:12;;;;;;;;;;;;;;;;;;1025038;29;19983;-80
2021/07/16 01:36:42;;;;;;;;;;;;;;;;;;1024926;29;19997;-79
2021/07/16 01:37:12;;;;;;;;;;;;;;;;;;1024901;29;19915;-80
2021/07/16 01:37:43;;;;;;;;;;;;;;;;;;1020998;29;20077;-80
2021/07/16 01:38:13;;;;;;;;;;;;;;;;;;1020898;29;19911;-80
2021/07/16 01:38:43;;;;;;;;;;;;;;;;;;1017018;29;19975;-80
2021/07/16 01:39:13;;;;;;;;;;;;;;;;;;1020866;29;19915;-79
2021/07/16 01:39:44;;;;;;;;;;;;;;;;;;1021752;29;19911;-79
2021/07/16 01:40:14;;;;;;;;;;;;;;;;;;1027573;29;19911;-79
2021/07/16 01:40:46;;;;;;;;;;;;;;;;;;1025644;29;19906;-80
2021/07/16 01:41:16;;;;;;;;;;;;;;;;;;1020985;29;20308;-80
2021/07/16 01:41:46;;;;;;;;;;;;;;;;;;1021212;29;19914;-80
2021/07/16 01:42:17;;;;;;;;;;;;;;;;;;1024948;29;19906;-80
2021/07/16 01:42:47;;;;;;;;;;;;;;;;;;1024988;29;19998;-80
2021/07/16 01:43:17;;;;;;;;;;;;;;;;;;1029008;28;19948;-80
2021/07/16 01:43:48;;;;;;;;;;;;;;;;;;1028986;28;19906;-80
2021/07/16 01:44:18;;;;;;;;;;;;;;;;;;1028924;28;19906;-80
2021/07/16 01:44:48;;;;;;;;;;;;;;;;;;1029021;28;19914;-80
2021/07/16 01:45:18;;;;;;;;;;;;;;;;;;1028842;28;20295;-80
2021/07/16 01:45:49;;;;;;;;;;;;;;;;;;1024810;29;19907;-79
2021/07/16 01:46:19;;;;;;;;;;;;;;;;;;1020862;29;19962;-80
2021/07/16 01:46:49;;;;;;;;;;;;;;;;;;1020876;29;19907;-80
2021/07/16 01:47:19;;;;;;;;;;;;;;;;;;1024856;29;19913;-80
2021/07/16 01:47:50;;;;;;;;;;;;;;;;;;1024710;29;19948;-80
2021/07/16 01:48:20;;;;;;;;;;;;;;;;;;1028704;28;20000;-80
2021/07/16 01:48:50;;;;;;;;;;;;;;;;;;1028990;28;19913;-80
2021/07/16 01:49:20;;;;;;;;;;;;;;;;;;1028824;28;19907;-80
2021/07/16 01:49:51;;;;;;;;;;;;;;;;;;1028754;28;19950;-80
2021/07/16 01:50:21;;;;;;;;;;;;;;;;;;1025011;29;19906;-80
2021/07/16 01:50:51;;;;;;;;;;;;;;;;;;1020953;29;19914;-80
2021/07/16 01:51:21;;;;;;;;;;;;;;;;;;1021126;29;19913;-80
2021/07/16 01:51:52;;;;;;;;;;;;;;;;;;1024799;29;19907;-80
2021/07/16 01:52:22;;;;;;;;;;;;;;;;;;1024869;29;19907;-80
2021/07/16 01:52:52;;;;;;;;;;;;;;;;;;1024713;29;19914;-80
2021/07/16 01:53:22;;;;;;;;;;;;;;;;;;1021013;29;19974;-80
2021/07/16 01:53:53;;;;;;;;;;;;;;;;;;1024890;29;19907;-80
2021/07/16 01:54:23;;;;;;;;;;;;;;;;;;1020951;29;19946;-80
2021/07/16 01:54:53;;;;;;;;;;;;;;;;;;1020843;29;19911;-79
2021/07/16 01:55:23;;;;;;;;;;;;;;;;;;1017299;29;19907;-79
2021/07/16 01:55:54;;;;;;;;;;;;;;;;;;1017744;29;20028;-79
2021/07/16 01:56:24;;;;;;;;;;;;;;;;;;1013795;29;19912;-78
2021/07/16 01:56:54;;;;;;;;;;;;;;;;;;1017624;29;19958;-78
2021/07/16 01:57:25;;;;;;;;;;;;;;;;;;1021408;29;19907;-79
2021/07/16 01:57:55;;;;;;;;;;;;;;;;;;1017676;29;20013;-79
2021/07/16 01:58:25;;;;;;;;;;;;;;;;;;1017582;29;20010;-79
2021/07/16 01:58:55;;;;;;;;;;;;;;;;;;1017912;29;19978;-79
2021/07/16 01:59:26;;;;;;;;;;;;;;;;;;1017519;29;19934;-79
2021/07/16 01:59:56;;;;;;;;;;;;;;;;;;1025326;29;19942;-79
2021/07/16 02:00:26;;;;;;;;;;;;;;;;;;1020846;29;19994;-79
2021/07/16 02:00:56;;;;;;;;;;;;;;;;;;1017028;29;20002;-80
2021/07/16 02:01:28;;;;;;;;;;;;;;;;;;1016827;29;19962;-79
2021/07/16 02:01:58;;;;;;;;;;;;;;;;;;1017044;29;19911;-79
2021/07/16 02:02:29;;;;;;;;;;;;;;;;;;1020853;29;19911;-79
2021/07/16 02:02:59;;;;;;;;;;;;;;;;;;1024902;29;20404;-79
2021/07/16 02:03:29;;;;;;;;;;;;;;;;;;1024844;28;20762;-79
2021/07/16 02:04:00;;;;;;;;;;;;;;;;;;1024788;29;19918;-80
2021/07/16 02:04:30;;;;;;;;;;;;;;;;;;1024802;29;19941;-79
2021/07/16 02:05:00;;;;;;;;;;;;;;;;;;1020958;29;19914;-79
2021/07/16 02:05:31;;;;;;;;;;;;;;;;;;1020704;29;19911;-79
2021/07/16 02:06:01;;;;;;;;;;;;;;;;;;1016898;29;19911;-79
2021/07/16 02:06:31;;;;;;;;;;;;;;;;;;1020858;29;19907;-79
2021/07/16 02:07:02;;;;;;;;;;;;;;;;;;1020723;29;19918;-79
2021/07/16 02:07:32;;;;;;;;;;;;;;;;;;1020882;29;19993;-79
2021/07/16 02:08:02;;;;;;;;;;;;;;;;;;1020771;29;19953;-79
2021/07/16 02:08:32;;;;;;;;;;;;;;;;;;1024921;29;20010;-79
2021/07/16 02:09:03;;;;;;;;;;;;;;;;;;1020745;29;20297;-79
2021/07/16 02:09:33;;;;;;;;;;;;;;;;;;1024788;28;19906;-79
2021/07/16 02:10:03;;;;;;;;;;;;;;;;;;1024832;29;19914;-78
2021/07/16 02:10:33;;;;;;;;;;;;;;;;;;1020829;29;19911;-79
2021/07/16 02:11:04;;;;;;;;;;;;;;;;;;1016761;29;19919;-79
2021/07/16 02:11:34;;;;;;;;;;;;;;;;;;1016718;29;19915;-78
2021/07/16 02:12:04;;;;;;;;;;;;;;;;;;1012836;29;19923;-78
2021/07/16 02:12:34;;;;;;;;;;;;;;;;;;1016758;29;20348;-78
2021/07/16 02:13:05;;;;;;;;;;;;;;;;;;1016702;29;19943;-79
2021/07/16 02:13:35;;;;;;;;;;;;;;;;;;1016819;29;19922;-79
2021/07/16 02:14:05;;;;;;;;;;;;;;;;;;1016713;29;20005;-78
2021/07/16 02:14:35;;;;;;;;;;;;;;;;;;1016544;29;20342;-79
2021/07/16 02:15:06;;;;;;;;;;;;;;;;;;1020494;29;20006;-78
2021/07/16 02:15:36;;;;;;;;;;;;;;;;;;1028503;28;19996;-79
2021/07/16 02:16:06;;;;;;;;;;;;;;;;;;1028676;28;19945;-79
2021/07/16 02:16:36;;;;;;;;;;;;;;;;;;1028681;28;20005;-79
2021/07/16 02:17:07;;;;;;;;;;;;;;;;;;1028479;28;19910;-79
2021/07/16 02:17:37;;;;;;;;;;;;;;;;;;1024404;28;20392;-78
2021/07/16 02:18:07;;;;;;;;;;;;;;;;;;1024613;29;19906;-80
2021/07/16 02:18:37;;;;;;;;;;;;;;;;;;1024658;29;19911;-78
2021/07/16 02:19:08;;;;;;;;;;;;;;;;;;1024606;28;20009;-78
2021/07/16 02:19:38;;;;;;;;;;;;;;;;;;1024522;28;19957;-79
2021/07/16 02:20:08;;;;;;;;;;;;;;;;;;1016724;29;19911;-79
2021/07/16 02:20:38;;;;;;;;;;;;;;;;;;1016747;29;19907;-79
2021/07/16 02:21:09;;;;;;;;;;;;;;;;;;1016882;29;19946;-79
2021/07/16 02:21:39;;;;;;;;;;;;;;;;;;1020826;29;19911;-79
2021/07/16 02:22:10;;;;;;;;;;;;;;;;;;1024572;29;19906;-79
2021/07/16 02:22:40;;;;;;;;;;;;;;;;;;1024772;29;19902;-79
2021/07/16 02:23:10;;;;;;;;;;;;;;;;;;1020818;29;20436;-79
2021/07/16 02:23:41;;;;;;;;;;;;;;;;;;1020716;29;19907;-79
2021/07/16 02:24:11;;;;;;;;;;;;;;;;;;1020669;29;19969;-79
2021/07/16 02:24:41;;;;;;;;;;;;;;;;;;1016943;29;19946;-79
2021/07/16 02:25:11;;;;;;;;;;;;;;;;;;1016837;29;20354;-79
2021/07/16 02:25:42;;;;;;;;;;;;;;;;;;1020698;29;19911;-79
2021/07/16 02:26:12;;;;;;;;;;;;;;;;;;1016904;29;19907;-79
2021/07/16 02:26:42;;;;;;;;;;;;;;;;;;1020486;29;19907;-79
2021/07/16 02:27:12;;;;;;;;;;;;;;;;;;1020406;29;19953;-79
2021/07/16 02:27:43;;;;;;;;;;;;;;;;;;1020843;29;19907;-79
2021/07/16 02:28:13;;;;;;;;;;;;;;;;;;1020213;29;20366;-79
2021/07/16 02:28:43;;;;;;;;;;;;;;;;;;1024339;28;19907;-79
2021/07/16 02:29:13;;;;;;;;;;;;;;;;;;1020445;29;19907;-78
2021/07/16 02:29:44;;;;;;;;;;;;;;;;;;1020384;29;20388;-78
2021/07/16 02:30:14;;;;;;;;;;;;;;;;;;1020360;29;19906;-78
2021/07/16 02:30:44;;;;;;;;;;;;;;;;;;1020456;29;19911;-79
2021/07/16 02:31:14;;;;;;;;;;;;;;;;;;1020376;29;19907;-79
2021/07/16 02:31:49;;;;;;;;;;;;;;;;;;1016405;29;20264;-79
2021/07/16 02:32:19;;;;;;;;;;;;;;;;;;1017505;29;19955;-79
2021/07/16 02:32:49;;;;;;;;;;;;;;;;;;1021337;29;19974;-79
2021/07/16 02:33:19;;;;;;;;;;;;;;;;;;1025352;28;19907;-79
2021/07/16 02:33:49;;;;;;;;;;;;;;;;;;1028727;28;19914;-79
2021/07/16 02:34:20;;;;;;;;;;;;;;;;;;1028790;28;19910;-78
2021/07/16 02:34:50;;;;;;;;;;;;;;;;;;1028646;28;20350;-78
2021/07/16 02:35:20;;;;;;;;;;;;;;;;;;1028861;28;20004;-81
2021/07/16 02:35:50;;;;;;;;;;;;;;;;;;1029263;28;19934;-79
2021/07/16 02:36:23;;;;;;;;;;;;;;;;;;1029523;28;19958;-79
2021/07/16 02:36:53;;;;;;;;;;;;;;;;;;1029033;28;19906;-79
2021/07/16 02:37:23;;;;;;;;;;;;;;;;;;1028837;28;19929;-79
2021/07/16 02:37:54;;;;;;;;;;;;;;;;;;1024667;29;19914;-79
2021/07/16 02:38:24;;;;;;;;;;;;;;;;;;1024694;29;19938;-80
2021/07/16 02:38:54;;;;;;;;;;;;;;;;;;1024850;28;20391;-80
2021/07/16 02:39:24;;;;;;;;;;;;;;;;;;1021043;29;19962;-80
2021/07/16 02:39:55;;;;;;;;;;;;;;;;;;1022238;29;19912;-79
2021/07/16 02:40:59;;;;;;;;;;;;;;;;;;1026506;28;19948;-79
2021/07/16 02:41:29;;;;;;;;;;;;;;;;;;1028779;28;19918;-80
2021/07/16 02:42:32;;;;;;;;;;;;;;;;;;1031101;28;19976;-79
2021/07/16 02:43:02;;;;;;;;;;;;;;;;;;1032756;28;19906;-80
2021/07/16 02:43:35;;;;;;;;;;;;;;;;;;1037964;23;19896;-79
2021/07/16 02:44:05;;;;;;;;;;;;;;;;;;1028501;28;20326;-79
2021/07/16 02:45:08;;;;;;;;;;;;;;;;;;1014698;29;19931;-79
2021/07/16 02:45:38;;;;;;;;;;;;;;;;;;1013005;29;19923;-79
2021/07/16 02:46:09;;;;;;;;;;;;;;;;;;1013254;29;19981;-79
2021/07/16 02:46:39;;;;;;;;;;;;;;;;;;1009623;29;19904;-79
2021/07/16 02:47:48;;;;;;;;;;;;;;;;;;1030859;28;19926;-79
2021/07/16 02:48:19;;;;;;;;;;;;;;;;;;1028617;28;20364;-79
2021/07/16 02:48:49;;;;;;;;;;;;;;;;;;1036774;23;19907;-79
2021/07/16 02:49:19;;;;;;;;;;;;;;;;;;1023795;29;20037;-79
2021/07/16 02:49:50;;;;;;;;;;;;;;;;;;1025261;29;19911;-79
2021/07/16 02:50:20;;;;;;;;;;;;;;;;;;1020952;29;19974;-79
2021/07/16 02:50:50;;;;;;;;;;;;;;;;;;1025068;29;19949;-80
2021/07/16 02:51:20;;;;;;;;;;;;;;;;;;1028679;28;19913;-79
2021/07/16 02:51:51;;;;;;;;;;;;;;;;;;1033053;28;19905;-80
2021/07/16 02:52:21;;;;;;;;;;;;;;;;;;1033012;28;20390;-80
2021/07/16 02:52:51;;;;;;;;;;;;;;;;;;1028773;28;19929;-79
2021/07/16 02:53:22;;;;;;;;;;;;;;;;;;1025443;28;20292;-79
2021/07/16 02:53:52;;;;;;;;;;;;;;;;;;1021763;29;19942;-80
2021/07/16 02:54:22;;;;;;;;;;;;;;;;;;1017174;29;19915;-79
2021/07/16 02:54:52;;;;;;;;;;;;;;;;;;1017099;29;19955;-79
2021/07/16 02:55:23;;;;;;;;;;;;;;;;;;1024497;29;19914;-79
2021/07/16 02:55:53;;;;;;;;;;;;;;;;;;1028604;28;19909;-79
2021/07/16 02:56:23;;;;;;;;;;;;;;;;;;1032676;28;19906;-79
2021/07/16 02:56:53;;;;;;;;;;;;;;;;;;1028686;28;19906;-79
2021/07/16 02:57:24;;;;;;;;;;;;;;;;;;1028659;28;20077;-79
2021/07/16 02:57:54;;;;;;;;;;;;;;;;;;1028596;28;19912;-78
2021/07/16 02:58:24;;;;;;;;;;;;;;;;;;1028439;28;20005;-78
2021/07/16 02:58:54;;;;;;;;;;;;;;;;;;1028584;28;19910;-78
2021/07/16 02:59:25;;;;;;;;;;;;;;;;;;1028620;28;19906;-78
2021/07/16 02:59:55;;;;;;;;;;;;;;;;;;1028570;28;19921;-79
2021/07/16 03:00:26;;;;;;;;;;;;;;;;;;1024697;29;20034;-78
2021/07/16 03:00:56;;;;;;;;;;;;;;;;;;1024727;29;19926;-78
2021/07/16 03:01:26;;;;;;;;;;;;;;;;;;1024760;28;20372;-78
2021/07/16 03:01:56;;;;;;;;;;;;;;;;;;1024475;28;20001;-78
2021/07/16 03:02:27;;;;;;;;;;;;;;;;;;1020715;29;19953;-78
2021/07/16 03:02:57;;;;;;;;;;;;;;;;;;1028750;28;19910;-80
2021/07/16 03:03:27;;;;;;;;;;;;;;;;;;1016655;29;19950;-78
2021/07/16 03:03:58;;;;;;;;;;;;;;;;;;1020765;29;19949;-78
2021/07/16 03:04:28;;;;;;;;;;;;;;;;;;1024822;29;19918;-79
2021/07/16 03:04:58;;;;;;;;;;;;;;;;;;1020876;29;20312;-78
2021/07/16 03:05:29;;;;;;;;;;;;;;;;;;1024479;28;19986;-79
2021/07/16 03:05:59;;;;;;;;;;;;;;;;;;1028377;28;20387;-78
2021/07/16 03:06:29;;;;;;;;;;;;;;;;;;1028783;28;19911;-78
2021/07/16 03:06:59;;;;;;;;;;;;;;;;;;1024570;28;20431;-78
2021/07/16 03:07:30;;;;;;;;;;;;;;;;;;1028374;28;19936;-79
2021/07/16 03:08:00;;;;;;;;;;;;;;;;;;1024362;28;20383;-79
2021/07/16 03:08:30;;;;;;;;;;;;;;;;;;1024615;28;19903;-79
2021/07/16 03:09:00;;;;;;;;;;;;;;;;;;1020664;29;19974;-79
2021/07/16 03:09:34;;;;;;;;;;;;;;;;;;1024515;29;20000;-79
2021/07/16 03:10:04;;;;;;;;;;;;;;;;;;1024669;28;19911;-79
2021/07/16 03:10:34;;;;;;;;;;;;;;;;;;1025585;28;20001;-79
2021/07/16 03:11:05;;;;;;;;;;;;;;;;;;1029141;28;20471;-79
2021/07/16 03:11:35;;;;;;;;;;;;;;;;;;1029727;28;19910;-78
2021/07/16 03:12:05;;;;;;;;;;;;;;;;;;1025975;29;19978;-79
2021/07/16 03:12:36;;;;;;;;;;;;;;;;;;1021887;29;19907;-79
2021/07/16 03:13:06;;;;;;;;;;;;;;;;;;1026311;28;19962;-79
2021/07/16 03:13:36;;;;;;;;;;;;;;;;;;1030475;28;19970;-79
2021/07/16 03:14:06;;;;;;;;;;;;;;;;;;1029885;28;20004;-79
2021/07/16 03:14:37;;;;;;;;;;;;;;;;;;1033982;28;20043;-79
2021/07/16 03:15:07;;;;;;;;;;;;;;;;;;1034709;28;19933;-78
2021/07/16 03:15:37;;;;;;;;;;;;;;;;;;1034180;28;19917;-79
2021/07/16 03:16:07;;;;;;;;;;;;;;;;;;1033424;28;20363;-79
2021/07/16 03:16:38;;;;;;;;;;;;;;;;;;1028827;28;19958;-79
2021/07/16 03:17:08;;;;;;;;;;;;;;;;;;1024964;28;19912;-78
2021/07/16 03:17:41;;;;;;;;;;;;;;;;;;1024717;28;19997;-79
2021/07/16 03:18:11;;;;;;;;;;;;;;;;;;1025204;28;19914;-78
2021/07/16 03:18:42;;;;;;;;;;;;;;;;;;1032805;28;20000;-78
2021/07/16 03:19:12;;;;;;;;;;;;;;;;;;1033289;28;19964;-78
2021/07/16 03:19:42;;;;;;;;;;;;;;;;;;1032481;28;20009;-79
2021/07/16 03:20:12;;;;;;;;;;;;;;;;;;1028545;28;19914;-78
2021/07/16 03:20:43;;;;;;;;;;;;;;;;;;1028561;28;19913;-78
2021/07/16 03:21:13;;;;;;;;;;;;;;;;;;1026867;28;20431;-79
2021/07/16 03:21:43;;;;;;;;;;;;;;;;;;1028945;28;19940;-79
2021/07/16 03:22:14;;;;;;;;;;;;;;;;;;1025232;29;19911;-79
2021/07/16 03:22:44;;;;;;;;;;;;;;;;;;1025199;29;19897;-79
2021/07/16 03:23:14;;;;;;;;;;;;;;;;;;1033248;28;19906;-79
2021/07/16 03:23:44;;;;;;;;;;;;;;;;;;1033373;28;19890;-80
2021/07/16 03:24:15;;;;;;;;;;;;;;;;;;1033354;28;19945;-79
2021/07/16 03:24:45;;;;;;;;;;;;;;;;;;1029356;29;19933;-80
2021/07/16 03:25:15;;;;;;;;;;;;;;;;;;1029698;28;19905;-80
2021/07/16 03:25:45;;;;;;;;;;;;;;;;;;1033853;28;19918;-79
2021/07/16 03:26:16;;;;;;;;;;;;;;;;;;1033735;28;20051;-79
2021/07/16 03:26:46;;;;;;;;;;;;;;;;;;1041766;28;19933;-79
2021/07/16 03:27:16;;;;;;;;;;;;;;;;;;1041669;28;19920;-79
2021/07/16 03:27:46;;;;;;;;;;;;;;;;;;1033361;28;19894;-79
2021/07/16 03:28:18;;;;;;;;;;;;;;;;;;1033413;28;19890;-79
2021/07/16 03:28:48;;;;;;;;;;;;;;;;;;1033421;28;19894;-79
2021/07/16 03:29:18;;;;;;;;;;;;;;;;;;1033774;28;19891;-79